Terminal Aerodrome Forecast
Issued by NWS

Home | Current Version | Previous Version | Text Only | Print | Product List | Glossary Off
Versions: 1 2 3 4 5 6 7 8 9 10 11 12

000
FTUS43 KGRB 031123
TAFATW
TAF
KATW 031123Z 0312/0412 VRB03KT P6SM SCT250
     FM031500 23009KT P6SM SCT050 BKN250
     FM040100 24004KT P6SM SCT050 SCT080=

USA.gov is the U.S. government's official web portal to all federal, state and local government web resources and services.